Time;durP1;ratioP1;P1;durP2;ratioP2;P2;SDS_P1;SDS_P2;PMS_P1;PMS_P2;Temp;Humidity;BMP_temperature;BMP_pressure;BME280_temperature;BME280_humidity;BME280_pressure;Samples;Min_cycle;Max_cycle;Signal;HPM_P1;HPM_P2
2021/08/06 00:00:24;;;;;;;2.50;0.70;;;;;;;24.14;73.75;97195.53;5050763;28;20202;-68
2021/08/06 00:02:51;;;;;;;1.00;0.63;;;;;;;24.15;72.96;97189.78;5050553;28;20203;-68
2021/08/06 00:05:18;;;;;;;0.73;0.70;;;;;;;24.22;72.10;97197.53;5051207;28;20591;-68
2021/08/06 00:07:45;;;;;;;1.37;0.80;;;;;;;24.27;72.28;97191.97;5050099;28;20691;-67
2021/08/06 00:10:14;;;;;;;1.20;1.00;;;;;;;23.87;73.68;97184.66;5051089;28;20226;-67
2021/08/06 00:12:42;;;;;;;2.20;0.80;;;;;;;23.55;75.15;97190.22;5048572;28;20659;-67
2021/08/06 00:15:10;;;;;;;1.40;0.80;;;;;;;23.99;73.37;97195.84;5047423;28;20212;-67
2021/08/06 00:17:37;;;;;;;2.43;0.93;;;;;;;24.31;71.60;97193.75;5050338;28;20733;-67
2021/08/06 00:20:07;;;;;;;1.20;0.83;;;;;;;24.26;71.19;97188.41;5052710;28;20261;-68
2021/08/06 00:22:34;;;;;;;2.17;1.10;;;;;;;24.37;70.65;97189.00;5049932;28;20209;-68
2021/08/06 00:25:02;;;;;;;1.33;0.90;;;;;;;24.32;71.29;97184.47;5049949;28;20252;-67
2021/08/06 00:27:31;;;;;;;2.07;0.80;;;;;;;24.61;68.69;97184.88;5050016;28;20225;-67
2021/08/06 00:29:59;;;;;;;3.13;0.83;;;;;;;24.56;68.12;97195.88;5048576;28;20269;-68
2021/08/06 00:32:26;;;;;;;2.50;1.03;;;;;;;24.23;69.98;97188.22;5050616;28;20203;-67
2021/08/06 00:34:53;;;;;;;1.03;0.80;;;;;;;-139.38;100.00;63230.50;5049689;28;20576;-68
2021/08/06 00:37:20;;;;;;;1.10;0.60;;;;;;;-139.38;100.00;63230.50;5049859;28;20230;-67
2021/08/06 00:39:48;;;;;;;0.97;0.90;;;;;;;-139.38;100.00;63230.50;5049822;28;20412;-67
2021/08/06 00:42:15;;;;;;;4.00;0.90;;;;;;;-139.38;100.00;63230.50;5049397;28;20210;-67
2021/08/06 00:44:44;;;;;;;0.73;0.73;;;;;;;-139.38;100.00;63230.50;5049435;28;20668;-67
2021/08/06 00:47:11;;;;;;;1.27;0.80;;;;;;;-139.38;100.00;63230.50;5045411;28;20242;-67
2021/08/06 00:49:38;;;;;;;1.93;0.90;;;;;;;-139.38;100.00;63230.50;5052963;28;20240;-67
2021/08/06 00:52:06;;;;;;;1.23;0.90;;;;;;;24.13;68.52;97174.81;5050941;28;20202;-67
2021/08/06 00:54:33;;;;;;;1.63;0.90;;;;;;;-139.38;100.00;63230.50;5051365;28;20207;-67
2021/08/06 00:57:01;;;;;;;1.43;1.00;;;;;;;24.23;68.32;97175.38;5051372;28;20207;-67
2021/08/06 00:59:28;;;;;;;2.17;0.80;;;;;;;23.84;71.66;97160.72;5052689;28;20306;-67
2021/08/06 01:02:05;;;;;;;1.97;0.90;;;;;;;23.67;71.67;97168.72;5052191;28;20206;-67
2021/08/06 01:04:40;;;;;;;0.70;0.70;;;;;;;23.89;71.19;97168.81;5046584;28;20208;-67
2021/08/06 01:07:12;;;;;;;1.27;1.00;;;;;;;24.24;69.04;97166.13;5049638;28;20233;-67
2021/08/06 01:09:42;;;;;;;1.23;0.70;;;;;;;24.35;67.34;97167.50;5047345;28;20236;-67
2021/08/06 01:12:13;;;;;;;0.70;0.70;;;;;;;23.77;69.88;97160.34;5051781;28;20226;-68
2021/08/06 01:14:43;;;;;;;1.53;0.87;;;;;;;23.83;69.83;97159.94;5052558;28;20202;-67
2021/08/06 01:17:13;;;;;;;2.23;1.00;;;;;;;23.98;69.71;97164.25;5052343;28;20303;-67
2021/08/06 01:19:49;;;;;;;1.27;0.80;;;;;;;24.09;68.84;97171.91;5052056;28;20613;-67
2021/08/06 01:22:21;;;;;;;0.70;0.70;;;;;;;24.12;69.51;97168.56;5045978;28;20206;-67
2021/08/06 01:24:52;;;;;;;1.67;0.97;;;;;;;24.12;68.23;97176.72;5052179;28;20226;-67
2021/08/06 01:27:21;;;;;;;0.80;0.80;;;;;;;24.23;68.19;97167.19;5044312;28;20305;-67
2021/08/06 01:29:49;;;;;;;3.63;0.90;;;;;;;23.88;70.50;97159.81;5053758;28;20229;-68
2021/08/06 01:32:16;;;;;;;1.07;0.90;;;;;;;23.95;68.45;97162.13;5052257;28;20211;-67
2021/08/06 01:34:43;;;;;;;3.27;0.90;;;;;;;24.10;68.09;97162.63;5052198;28;20224;-67
2021/08/06 01:37:10;;;;;;;2.63;1.07;;;;;;;24.02;68.48;97165.28;5052557;28;20230;-67
2021/08/06 01:39:38;;;;;;;1.67;0.67;;;;;;;24.24;67.59;97162.56;5052268;28;20198;-67
2021/08/06 01:42:10;;;;;;;1.97;1.00;;;;;;;24.04;67.37;97161.13;5051201;28;20210;-67
2021/08/06 01:44:45;;;;;;;2.80;0.93;;;;;;;24.42;66.00;97158.88;5052184;28;20214;-67
2021/08/06 01:47:16;;;;;;;1.63;0.90;;;;;;;23.76;69.80;97156.78;5063798;22;20231;-65
2021/08/06 01:49:48;;;;;;;1.40;0.90;;;;;;;23.90;68.95;97157.63;5042618;28;20671;-65
2021/08/06 01:52:20;;;;;;;1.93;1.10;;;;;;;24.23;66.49;97160.97;5044699;28;20198;-65
2021/08/06 01:54:50;;;;;;;1.57;1.00;;;;;;;24.17;66.56;97160.25;5047326;28;20237;-67
2021/08/06 01:57:17;;;;;;;1.63;0.97;;;;;;;24.23;66.08;97160.97;5048542;28;20235;-68
2021/08/06 01:59:47;;;;;;;2.17;1.40;;;;;;;24.29;65.73;97159.72;5051215;28;20286;-66
2021/08/06 02:02:15;;;;;;;0.93;0.90;;;;;;;24.37;64.20;97159.00;5052824;28;20208;-67
2021/08/06 02:04:43;;;;;;;1.20;0.90;;;;;;;24.24;65.30;97162.56;5051705;28;20203;-67
2021/08/06 02:07:10;;;;;;;1.57;1.07;;;;;;;24.76;61.95;97159.94;5051013;28;20231;-67
2021/08/06 02:09:39;;;;;;;1.07;0.90;;;;;;;24.43;62.06;97155.03;5050797;28;20244;-67
2021/08/06 02:12:07;;;;;;;0.90;0.80;;;;;;;24.51;61.60;97149.63;5050144;28;20212;-67
2021/08/06 02:14:34;;;;;;;1.30;1.00;;;;;;;24.62;61.79;97161.94;5051801;28;20220;-68
2021/08/06 02:17:03;;;;;;;3.97;1.20;;;;;;;24.19;62.62;97151.78;5051924;28;20229;-66
2021/08/06 02:19:31;;;;;;;1.10;1.00;;;;;;;25.02;59.55;97152.72;5051216;28;20650;-65
2021/08/06 02:22:01;;;;;;;1.00;0.90;;;;;;;25.10;58.29;97151.13;5051487;28;20658;-67
2021/08/06 02:24:32;;;;;;;2.50;1.10;;;;;;;24.84;60.74;97152.94;5051164;28;20204;-67
2021/08/06 02:26:59;;;;;;;2.30;1.00;;;;;;;25.10;58.15;97149.22;5051199;28;20243;-66
2021/08/06 02:29:29;;;;;;;1.23;1.00;;;;;;;25.03;58.01;97146.13;5051050;28;20577;-67
2021/08/06 02:31:58;;;;;;;1.63;0.90;;;;;;;24.80;59.36;97150.03;5051671;28;20246;-66
2021/08/06 02:34:27;;;;;;;1.07;0.97;;;;;;;24.91;58.51;97147.81;5051246;28;20328;-67
2021/08/06 02:36:54;;;;;;;1.53;1.00;;;;;;;24.72;59.17;97145.31;5049787;28;20226;-67
2021/08/06 02:39:23;;;;;;;2.80;1.00;;;;;;;24.72;59.31;97142.56;5047979;28;20209;-67
2021/08/06 02:41:51;;;;;;;1.40;1.10;;;;;;;24.82;59.19;97136.06;5049608;28;20561;-66
2021/08/06 02:44:18;;;;;;;3.90;1.07;;;;;;;25.14;58.41;97138.47;5049634;28;20887;-70
2021/08/06 02:46:46;;;;;;;1.17;1.00;;;;;;;25.01;59.18;97128.44;5050763;28;20243;-66
2021/08/06 02:49:13;;;;;;;3.43;0.90;;;;;;;25.38;56.63;97126.06;5049022;28;20213;-65
2021/08/06 02:51:42;;;;;;;1.63;0.93;;;;;;;25.19;57.56;97124.69;5051521;28;20231;-67
2021/08/06 02:54:10;;;;;;;1.20;1.00;;;;;;;25.59;55.41;97135.28;5053254;28;20254;-66
2021/08/06 02:56:37;;;;;;;2.53;1.10;;;;;;;25.08;57.25;97128.81;5050624;28;20228;-67
2021/08/06 02:59:04;;;;;;;0.90;0.87;;;;;;;25.49;55.40;97129.31;5050986;28;20214;-69
2021/08/06 03:01:32;;;;;;;1.77;1.10;;;;;;;24.85;58.08;97129.97;5048331;28;20261;-67
2021/08/06 03:03:59;;;;;;;1.90;1.07;;;;;;;25.55;54.37;97120.66;5049920;28;20212;-67
2021/08/06 03:06:26;;;;;;;1.00;0.90;;;;;;;25.88;52.75;97121.84;5049579;28;20298;-67
2021/08/06 03:08:55;;;;;;;4.20;1.77;;;;;;;25.84;52.78;97125.53;5050206;28;20211;-67
2021/08/06 03:11:23;;;;;;;1.20;1.10;;;;;;;25.98;51.98;97126.22;5050790;28;20288;-70
2021/08/06 03:13:50;;;;;;;1.27;0.97;;;;;;;25.53;52.76;97114.69;5049800;28;20606;-67
2021/08/06 03:16:18;;;;;;;1.77;1.10;;;;;;;25.94;51.67;97115.13;5051194;28;20208;-67
2021/08/06 03:18:45;;;;;;;2.77;0.90;;;;;;;25.83;52.63;97112.97;5047813;28;20207;-67
2021/08/06 03:21:12;;;;;;;2.43;1.10;;;;;;;25.66;52.37;97118.41;5051365;28;20203;-67
2021/08/06 03:23:40;;;;;;;2.47;1.40;;;;;;;25.70;51.55;97117.44;5048902;28;20208;-66
2021/08/06 03:26:08;;;;;;;1.70;1.20;;;;;;;25.78;50.69;97113.13;5049943;28;20311;-67
2021/08/06 03:28:35;;;;;;;2.63;1.40;;;;;;;25.92;50.19;97117.38;5049994;28;20655;-67
2021/08/06 03:31:03;;;;;;;1.83;1.10;;;;;;;26.07;49.89;97124.28;5049605;28;20227;-67
2021/08/06 03:33:30;;;;;;;3.43;1.40;;;;;;;25.63;51.61;97111.66;5050430;28;20726;-67
2021/08/06 03:35:58;;;;;;;1.77;1.33;;;;;;;24.91;53.69;97123.25;5049763;28;20215;-67
2021/08/06 03:38:26;;;;;;;2.63;1.23;;;;;;;25.20;53.33;97109.91;5049198;28;20238;-67
2021/08/06 03:40:53;;;;;;;2.17;1.10;;;;;;;25.76;51.03;97121.66;5049897;28;20205;-67
2021/08/06 03:43:22;;;;;;;2.60;1.00;;;;;;;26.13;49.44;97120.28;5049629;28;20204;-66
2021/08/06 03:45:50;;;;;;;2.10;0.90;;;;;;;25.42;51.57;97120.75;5050671;28;20609;-67
2021/08/06 03:48:17;;;;;;;1.50;1.10;;;;;;;25.66;51.18;97116.50;5050368;28;20244;-65
2021/08/06 03:50:45;;;;;;;2.10;1.23;;;;;;;25.88;51.06;97118.28;5049533;28;20236;-66
2021/08/06 03:53:12;;;;;;;2.37;1.20;;;;;;;25.66;50.97;97112.97;5046717;28;20214;-66
2021/08/06 03:55:39;;;;;;;1.30;1.00;;;;;;;26.03;49.82;97109.66;5051000;28;20198;-66
2021/08/06 03:58:07;;;;;;;1.27;1.17;;;;;;;25.80;51.42;97099.97;5049730;28;21820;-66
2021/08/06 04:00:38;;;;;;;1.20;1.10;;;;;;;24.81;53.77;97104.41;5049942;28;20583;-67
2021/08/06 04:03:05;;;;;;;1.60;1.20;;;;;;;24.33;57.63;97089.81;5050566;28;20270;-67
2021/08/06 04:05:33;;;;;;;2.37;1.10;;;;;;;24.96;54.88;97110.28;5049756;28;20208;-67
2021/08/06 04:08:05;;;;;;;0.87;0.80;;;;;;;24.70;56.53;97094.88;5049057;28;20280;-67
2021/08/06 04:10:33;;;;;;;0.93;0.90;;;;;;;25.15;54.21;97097.19;5050002;28;20281;-67
2021/08/06 04:13:00;;;;;;;0.87;0.87;;;;;;;25.04;54.53;97095.06;5048218;28;20227;-68
2021/08/06 04:15:28;;;;;;;1.77;0.90;;;;;;;25.07;55.27;97108.06;5041781;28;20205;-67
2021/08/06 04:17:56;;;;;;;1.10;1.00;;;;;;;25.06;54.63;97110.00;5048114;28;20223;-67
2021/08/06 04:20:24;;;;;;;2.33;0.83;;;;;;;25.20;56.73;97097.06;5047184;28;20222;-66
2021/08/06 04:22:51;;;;;;;2.00;1.30;;;;;;;25.25;55.77;97102.41;5053835;28;20209;-66
2021/08/06 04:25:19;;;;;;;1.43;1.10;;;;;;;24.89;58.89;97100.94;5053247;28;20223;-67
2021/08/06 04:27:47;;;;;;;1.40;1.20;;;;;;;24.86;58.64;97104.28;5053568;28;20226;-68
2021/08/06 04:30:15;;;;;;;1.37;1.07;;;;;;;25.24;59.09;97103.47;5054138;28;20208;-66
2021/08/06 04:32:42;;;;;;;1.33;1.17;;;;;;;24.69;62.79;97106.94;5059838;28;20260;-66
2021/08/06 04:35:11;;;;;;;3.00;1.27;;;;;;;23.79;65.15;97104.44;5054489;28;20238;-67
2021/08/06 04:37:47;;;;;;;1.30;1.20;;;;;;;24.30;67.44;97093.97;5052683;28;20243;-66
2021/08/06 04:40:15;;;;;;;5.60;1.30;;;;;;;23.94;71.53;97093.22;5052014;28;20287;-67
2021/08/06 04:42:42;;;;;;;2.17;1.23;;;;;;;23.90;73.04;97088.66;5053512;28;20218;-67
2021/08/06 04:45:10;;;;;;;3.10;1.37;;;;;;;24.36;71.04;97100.91;5053759;28;20259;-69
2021/08/06 04:47:43;;;;;;;1.87;1.30;;;;;;;24.43;71.57;97095.81;5052810;28;20233;-68
2021/08/06 04:50:13;;;;;;;2.10;1.40;;;;;;;24.63;68.77;97097.25;5049198;28;20202;-70
2021/08/06 04:52:41;;;;;;;2.87;1.17;;;;;;;23.97;71.49;97098.03;5053401;28;20223;-72
2021/08/06 04:55:09;;;;;;;1.93;1.10;;;;;;;24.01;72.32;97103.69;5053928;28;20204;-73
2021/08/06 04:57:37;;;;;;;2.00;1.53;;;;;;;24.33;71.34;97104.25;5053774;28;20280;-67
2021/08/06 05:00:05;;;;;;;2.77;1.43;;;;;;;24.48;70.59;97103.88;5051183;28;20206;-68
2021/08/06 05:02:32;;;;;;;2.17;1.33;;;;;;;23.50;78.03;97100.44;5052883;28;20203;-67
2021/08/06 05:05:01;;;;;;;2.33;1.50;;;;;;;23.88;77.24;97109.94;5052433;28;20216;-67
2021/08/06 05:07:29;;;;;;;5.60;1.73;;;;;;;23.41;81.50;97105.00;5052161;28;20775;-67
2021/08/06 05:09:57;;;;;;;2.80;1.43;;;;;;;23.58;80.63;97105.16;5052696;28;20208;-67
2021/08/06 05:12:24;;;;;;;4.30;1.60;;;;;;;23.51;83.05;97108.31;5052910;28;20248;-67
2021/08/06 05:14:52;;;;;;;5.70;1.40;;;;;;;23.24;85.08;97110.22;5052848;28;20206;-69
2021/08/06 05:17:19;;;;;;;2.13;1.40;;;;;;;23.03;87.16;97109.81;5052610;28;20221;-67
2021/08/06 05:19:46;;;;;;;2.90;1.83;;;;;;;23.37;84.45;97126.59;5051719;28;20221;-72
2021/08/06 05:22:14;;;;;;;4.10;1.63;;;;;;;23.41;84.12;97124.06;5050429;28;20198;-72
2021/08/06 05:24:42;;;;;;;1.73;1.53;;;;;;;23.31;85.01;97132.44;5049658;28;20195;-71
2021/08/06 05:27:09;;;;;;;2.00;1.67;;;;;;;23.25;87.95;97125.47;5059337;28;20225;-69
2021/08/06 05:29:37;;;;;;;1.83;1.30;;;;;;;23.12;86.42;97120.81;5052083;28;20194;-70
2021/08/06 05:32:05;;;;;;;2.07;1.67;;;;;;;23.58;84.43;97118.78;5052718;28;20229;-69
2021/08/06 05:34:32;;;;;;;4.43;1.63;;;;;;;23.11;90.09;97108.31;5051320;28;20205;-70
2021/08/06 05:36:59;;;;;;;1.40;1.27;;;;;;;23.52;86.26;97104.47;5050679;28;20229;-68
2021/08/06 05:39:26;;;;;;;4.50;1.50;;;;;;;23.52;87.49;97100.94;5048903;28;20208;-72
2021/08/06 05:41:55;;;;;;;2.60;1.50;;;;;;;23.96;83.67;97112.78;5048524;28;20194;-74
2021/08/06 05:44:22;;;;;;;2.60;1.40;;;;;;;24.05;83.35;97105.47;5048461;28;20300;-72
2021/08/06 05:46:49;;;;;;;2.50;1.30;;;;;;;24.27;80.63;97112.88;5049615;28;20245;-75
2021/08/06 05:49:17;;;;;;;1.87;1.43;;;;;;;24.58;80.20;97106.38;5047098;28;20203;-71
2021/08/06 05:51:44;;;;;;;4.60;1.50;;;;;;;23.77;84.45;97103.91;5045757;28;20580;-71
2021/08/06 05:54:11;;;;;;;2.27;1.47;;;;;;;24.48;81.35;97095.69;5043498;28;20206;-69
2021/08/06 05:56:39;;;;;;;2.00;1.43;;;;;;;24.57;81.13;97107.47;5051721;28;20227;-71
2021/08/06 05:59:07;;;;;;;2.73;1.70;;;;;;;23.92;85.02;97109.03;5044678;28;20214;-71
2021/08/06 06:01:35;;;;;;;4.50;1.80;;;;;;;24.73;81.36;97119.63;5052493;28;20192;-69
2021/08/06 06:04:02;;;;;;;1.80;1.50;;;;;;;25.18;77.03;97120.34;5051792;28;20203;-68
2021/08/06 06:06:31;;;;;;;5.20;1.60;;;;;;;25.14;76.51;97113.91;5048115;28;20250;-69
2021/08/06 06:08:58;;;;;;;4.20;1.80;;;;;;;24.97;78.27;97113.81;5050998;28;20735;-71
2021/08/06 06:11:26;;;;;;;2.50;1.73;;;;;;;25.15;77.17;97123.69;5046909;28;20726;-68
2021/08/06 06:13:53;;;;;;;1.67;1.50;;;;;;;24.92;75.65;97125.69;5043746;28;20215;-68
2021/08/06 06:16:22;;;;;;;1.60;1.33;;;;;;;24.85;77.92;97119.06;5050719;28;20211;-68
2021/08/06 06:18:49;;;;;;;4.07;1.60;;;;;;;25.17;75.56;97138.66;5049711;28;20207;-68
2021/08/06 06:21:16;;;;;;;3.73;1.37;;;;;;;25.44;75.46;97140.41;5047070;28;20206;-66
2021/08/06 06:23:44;;;;;;;2.33;1.50;;;;;;;25.48;75.74;97133.19;5048830;28;20210;-67
2021/08/06 06:26:11;;;;;;;2.63;1.43;;;;;;;24.42;79.63;97132.38;5051059;28;20298;-67
2021/08/06 06:28:38;;;;;;;2.80;1.30;;;;;;;24.92;76.61;97146.69;5046510;28;20220;-66
2021/08/06 06:31:05;;;;;;;3.10;1.57;;;;;;;;;;5051487;28;20204;-71
2021/08/06 06:33:34;;;;;;;3.57;1.50;;;;;;;25.47;75.18;97139.75;5049371;28;20209;-68
2021/08/06 06:36:01;;;;;;;2.40;1.40;;;;;;;25.40;76.04;97133.94;5049565;28;20686;-68
2021/08/06 06:38:29;;;;;;;1.97;1.43;;;;;;;25.53;73.16;97138.50;5049116;28;20568;-69
2021/08/06 06:40:56;;;;;;;3.87;1.60;;;;;;;25.09;75.71;97125.75;5050490;28;20656;-71
2021/08/06 06:43:23;;;;;;;3.53;1.40;;;;;;;25.20;74.33;97131.75;5047155;28;20205;-68
2021/08/06 06:45:51;;;;;;;2.53;1.70;;;;;;;25.12;74.48;97122.41;5046420;28;20212;-68
2021/08/06 06:48:18;;;;;;;4.80;1.60;;;;;;;24.96;77.20;97126.66;5050026;28;20231;-71
2021/08/06 06:50:47;;;;;;;2.10;1.30;;;;;;;25.20;76.46;97126.28;5043935;28;20218;-68
2021/08/06 06:53:14;;;;;;;3.00;1.40;;;;;;;25.44;74.73;97126.72;5050567;28;20257;-68
2021/08/06 06:55:41;;;;;;;3.77;1.50;;;;;;;25.52;73.47;97134.13;5051311;28;20657;-68
2021/08/06 06:58:08;;;;;;;2.33;1.37;;;;;;;25.77;72.10;97131.47;5046390;28;20220;-69
2021/08/06 07:00:36;;;;;;;2.60;1.57;;;;;;;25.88;71.82;97132.78;5048068;28;20219;-68
2021/08/06 07:03:03;;;;;;;4.83;1.70;;;;;;;26.14;72.04;97135.59;5050386;28;20283;-68
2021/08/06 07:05:31;;;;;;;2.67;1.40;;;;;;;25.90;73.73;97138.72;5046377;28;20206;-66
2021/08/06 07:08:01;;;;;;;1.70;1.20;;;;;;;26.41;70.07;97143.44;5050086;28;20313;-69
2021/08/06 07:10:29;;;;;;;1.50;1.20;;;;;;;26.73;68.53;97138.28;5050690;28;20941;-71
2021/08/06 07:12:57;;;;;;;1.93;1.10;;;;;;;26.76;65.70;97143.09;5047941;28;20226;-69
2021/08/06 07:15:25;;;;;;;1.17;0.90;;;;;;;26.45;67.97;97149.91;5041365;28;20203;-69
2021/08/06 07:17:52;;;;;;;1.13;1.03;;;;;;;26.61;67.20;97143.63;5045564;28;20235;-69
2021/08/06 07:20:21;;;;;;;1.30;0.90;;;;;;;26.60;65.48;97158.44;5048057;28;20201;-70
2021/08/06 07:22:49;;;;;;;1.63;1.10;;;;;;;27.07;66.19;97153.84;5046302;28;20657;-70
2021/08/06 07:25:19;;;;;;;3.33;1.17;;;;;;;27.27;64.36;97155.91;5047959;28;20198;-70
2021/08/06 07:27:47;;;;;;;3.47;0.90;;;;;;;26.52;65.13;97159.22;5046902;28;20272;-69
2021/08/06 07:30:14;;;;;;;3.40;1.30;;;;;;;27.03;65.22;97159.16;5049726;28;20209;-69
2021/08/06 07:32:42;;;;;;;3.33;1.10;;;;;;;27.54;63.10;97167.22;5045915;28;20225;-68
2021/08/06 07:35:11;;;;;;;1.37;1.00;;;;;;;26.84;64.85;97164.19;5049388;28;20289;-68
2021/08/06 07:37:40;;;;;;;3.93;1.30;;;;;;;26.62;67.28;97161.66;5049289;28;20607;-69
2021/08/06 07:40:08;;;;;;;1.70;1.00;;;;;;;25.58;73.43;97161.00;5049899;28;20218;-69
2021/08/06 07:42:37;;;;;;;2.27;1.53;;;;;;;27.13;65.23;97171.69;5044280;28;20228;-69
2021/08/06 07:45:05;;;;;;;2.47;1.57;;;;;;;26.76;69.26;97170.47;5041607;28;20207;-70
2021/08/06 07:47:33;;;;;;;1.13;0.83;;;;;;;27.03;65.98;97177.53;5048963;28;20713;-68
2021/08/06 07:50:00;;;;;;;3.13;0.97;;;;;;;26.10;71.58;97170.94;5050562;28;20213;-68
2021/08/06 07:52:27;;;;;;;2.70;1.33;;;;;;;25.91;77.42;97194.22;5052070;28;20218;-68
2021/08/06 07:54:55;;;;;;;5.10;1.30;;;;;;;25.74;85.04;97191.44;5052009;28;20293;-69
2021/08/06 07:57:22;;;;;;;5.27;1.50;;;;;;;25.27;91.19;97201.22;5052890;28;20228;-70
2021/08/06 07:59:51;;;;;;;0.90;0.80;;;;;;;24.87;87.65;97215.88;5047677;28;20206;-68
2021/08/06 08:02:21;;;;;;;1.10;1.00;;;;;;;24.73;90.27;97226.06;5045445;28;20277;-69
2021/08/06 08:04:48;;;;;;;2.30;1.03;;;;;;;24.54;88.19;97222.69;5052759;28;20206;-72
2021/08/06 08:07:16;;;;;;;1.50;0.93;;;;;;;24.76;89.62;97230.09;5053992;28;20232;-67
2021/08/06 08:09:43;;;;;;;3.30;1.13;;;;;;;25.06;86.64;97227.41;5054361;28;20209;-68
2021/08/06 08:12:11;;;;;;;2.60;1.10;;;;;;;24.97;87.25;97225.72;5052865;28;20222;-69
2021/08/06 08:14:38;;;;;;;2.17;1.10;;;;;;;24.56;87.94;97223.19;5041674;28;20198;-80
2021/08/06 08:17:07;;;;;;;2.63;0.87;;;;;;;24.97;85.97;97223.81;5047183;28;20265;-69
2021/08/06 08:19:34;;;;;;;2.20;1.10;;;;;;;25.45;81.69;97213.03;5046078;28;20207;-69
2021/08/06 08:22:02;;;;;;;2.00;1.00;;;;;;;25.49;81.50;97214.81;5051452;28;20204;-68
2021/08/06 08:24:29;;;;;;;2.10;1.10;;;;;;;25.67;81.93;97212.94;5050197;28;20211;-68
2021/08/06 08:26:56;;;;;;;1.87;0.90;;;;;;;26.19;79.69;97217.47;5057605;28;20224;-67
2021/08/06 08:29:24;;;;;;;2.03;1.10;;;;;;;26.54;75.45;97224.56;5055181;28;20211;-68
2021/08/06 08:31:51;;;;;;;1.30;0.93;;;;;;;25.80;77.96;97217.50;5052870;28;20239;-68
2021/08/06 08:34:20;;;;;;;1.73;0.90;;;;;;;27.07;74.78;97209.41;5056417;28;20569;-67
2021/08/06 08:36:47;;;;;;;2.30;0.80;;;;;;;27.03;69.84;97224.09;5055480;28;20230;-70
2021/08/06 08:39:14;;;;;;;2.63;0.80;;;;;;;27.78;67.54;97221.47;5054023;28;20659;-68
2021/08/06 08:41:41;;;;;;;0.90;0.80;;;;;;;27.08;68.48;97211.03;5051083;28;20210;-68
2021/08/06 08:44:09;;;;;;;2.70;1.43;;;;;;;27.15;69.46;97213.25;5049205;28;20840;-69
2021/08/06 08:46:38;;;;;;;3.83;1.00;;;;;;;27.08;67.47;97218.44;5058611;28;20229;-69
2021/08/06 08:49:06;;;;;;;1.73;0.87;;;;;;;27.15;69.56;97222.28;5053837;28;20666;-72
2021/08/06 08:51:36;;;;;;;0.93;0.73;;;;;;;27.78;65.65;97229.69;5051310;28;20202;-69
2021/08/06 08:54:05;;;;;;;1.53;0.83;;;;;;;28.50;61.64;97241.25;5053572;28;20596;-70
2021/08/06 08:56:32;;;;;;;2.57;0.70;;;;;;;28.57;63.22;97242.34;5052250;28;20236;-78
2021/08/06 08:59:00;;;;;;;1.77;0.80;;;;;;;28.64;62.24;97247.31;5047776;28;20206;-68
2021/08/06 09:01:28;;;;;;;1.63;0.60;;;;;;;28.32;60.88;97261.72;5053282;28;20677;-70
2021/08/06 09:03:55;;;;;;;3.40;0.70;;;;;;;28.67;56.62;97257.59;5048986;28;20208;-69
2021/08/06 09:06:41;;;;;;;0.83;0.80;;;;;;;28.36;61.35;97252.47;5044359;28;20578;-68
2021/08/06 09:09:15;;;;;;;2.57;0.47;;;;;;;28.18;59.46;97242.72;5055378;28;20596;-71
2021/08/06 09:11:43;;;;;;;0.67;0.60;;;;;;;27.73;57.64;97255.38;5051120;28;20678;-76
2021/08/06 09:14:17;;;;;;;1.53;0.70;;;;;;;27.93;57.25;97257.38;5052606;28;20309;-71
2021/08/06 09:17:02;;;;;;;2.25;0.70;;;;;;;28.38;57.67;97249.41;5048866;28;20867;-69
2021/08/06 09:19:31;;;;;;;1.60;0.70;;;;;;;28.73;53.94;97256.28;5053072;28;20566;-70
2021/08/06 09:22:17;;;;;;;2.47;0.60;;;;;;;29.55;50.38;97269.94;5053994;28;20682;-71
2021/08/06 09:25:11;;;;;;;2.17;0.87;;;;;;;28.92;54.08;97259.31;5047472;28;20221;-75
2021/08/06 09:27:40;;;;;;;1.23;0.80;;;;;;;28.59;55.84;97244.75;5049315;28;20292;-75
2021/08/06 09:30:10;;;;;;;3.23;1.13;;;;;;;28.79;54.54;97249.44;5051259;28;20294;-72
2021/08/06 09:32:49;;;;;;;1.30;0.70;;;;;;;28.41;52.25;97249.56;5052674;28;20214;-78
2021/08/06 09:35:17;;;;;;;1.70;0.93;;;;;;;28.45;55.05;97244.19;5052192;28;20581;-75
2021/08/06 09:37:46;;;;;;;1.90;1.10;;;;;;;28.48;56.99;97249.81;5052940;28;20317;-75
2021/08/06 09:40:15;;;;;;;4.67;0.90;;;;;;;27.30;59.97;97234.69;5046622;28;20209;-73
2021/08/06 09:42:49;;;;;;;1.20;0.80;;;;;;;28.01;54.29;97242.03;5045205;28;20191;-76
2021/08/06 09:45:18;;;;;;;1.50;0.80;;;;;;;28.11;56.53;97233.41;5051697;28;20210;-73
2021/08/06 09:47:54;;;;;;;2.63;0.90;;;;;;;28.00;55.75;97243.97;5053393;28;20755;-74
2021/08/06 09:50:23;;;;;;;3.63;1.27;;;;;;;28.39;52.46;97262.00;5050958;28;20710;-75
2021/08/06 09:52:53;;;;;;;1.97;0.80;;;;;;;28.03;51.46;97250.75;5051769;28;20229;-80
2021/08/06 09:55:22;;;;;;;1.67;0.90;;;;;;;28.96;50.48;97265.75;5056835;28;20233;-73
2021/08/06 09:57:51;;;;;;;0.80;0.73;;;;;;;28.90;47.93;97261.63;5053022;28;20231;-73
2021/08/06 10:00:20;;;;;;;0.90;0.70;;;;;;;28.75;48.99;97268.53;5058129;28;20191;-73
2021/08/06 10:02:47;;;;;;;3.30;1.20;;;;;;;29.05;47.76;97275.59;5044892;28;20219;-74
2021/08/06 10:05:16;;;;;;;1.97;0.90;;;;;;;29.33;43.88;97278.53;5052741;28;20200;-73
2021/08/06 10:07:44;;;;;;;1.93;0.80;;;;;;;29.29;44.53;97270.16;5052761;28;20234;-76
2021/08/06 10:10:15;;;;;;;2.53;1.27;;;;;;;29.86;41.63;97279.28;5050477;28;20715;-76
2021/08/06 10:12:42;;;;;;;3.97;1.90;;;;;;;29.94;41.83;97285.81;5050984;28;20222;-73
2021/08/06 10:15:11;;;;;;;1.83;1.00;;;;;;;29.22;40.90;97288.34;5051360;28;20227;-73
2021/08/06 10:17:39;;;;;;;2.03;1.00;;;;;;;29.73;41.47;97291.41;5049637;28;20630;-70
2021/08/06 10:20:08;;;;;;;8.48;1.50;;;;;;;29.43;41.94;97286.34;5046683;28;20696;-72
2021/08/06 10:22:36;;;;;;;6.25;2.00;;;;;;;29.21;40.39;97293.06;5052046;28;20201;-73
2021/08/06 10:25:06;;;;;;;1.58;0.95;;;;;;;29.27;41.19;97301.88;5050851;28;20348;-73
2021/08/06 10:27:37;;;;;;;2.58;1.27;;;;;;;28.59;41.50;97299.66;5059340;28;20260;-78
2021/08/06 10:30:07;;;;;;;3.10;1.20;;;;;;;29.79;39.91;97303.00;5056462;28;20211;-74
2021/08/06 10:32:35;;;;;;;3.67;1.10;;;;;;;30.32;39.01;97305.59;5050965;28;20221;-73
2021/08/06 10:35:16;;;;;;;2.85;1.10;;;;;;;29.11;41.62;97298.97;5051298;28;20204;-74
2021/08/06 10:37:55;;;;;;;2.90;1.30;;;;;;;29.14;41.73;97309.28;5047323;28;20294;-78
2021/08/06 10:41:02;;;;;;;3.63;1.30;;;;;;;29.13;41.62;97304.91;5047106;28;20232;-76
2021/08/06 10:44:11;;;;;;;2.63;0.77;;;;;;;29.42;41.01;97306.75;5051019;28;20201;-75
2021/08/06 10:47:02;;;;;;;2.13;1.20;;;;;;;30.24;39.95;97312.00;5037580;28;20238;-75
2021/08/06 10:49:31;;;;;;;1.02;0.70;;;;;;;30.75;38.25;97319.56;5058424;28;20270;-74
2021/08/06 10:52:30;;;;;;;6.03;1.30;;;;;;;30.23;40.05;97302.13;5050395;28;20662;-74
2021/08/06 10:55:16;;;;;;;3.15;1.17;;;;;;;30.42;38.01;97307.88;4944393;28;20939;-75
2021/08/06 10:57:43;;;;;;;2.47;0.90;;;;;;;30.75;38.08;97298.34;5037463;28;20222;-75
2021/08/06 11:00:11;;;;;;;1.48;0.80;;;;;;;29.87;40.11;97294.63;5050805;28;20212;-76
2021/08/06 11:02:54;;;;;;;1.73;0.95;;;;;;;29.94;40.04;97292.13;5041081;28;20633;-75
2021/08/06 11:05:46;;;;;;;3.15;0.93;;;;;;;29.88;39.64;97298.19;5059257;28;20213;-75
2021/08/06 11:08:56;;;;;;;2.05;0.90;;;;;;;29.60;40.39;97291.72;5046227;28;20236;-75
2021/08/06 11:11:55;;;;;;;2.77;0.97;;;;;;;28.32;42.55;97305.63;5051636;28;20340;-74
2021/08/06 11:14:50;;;;;;;1.53;0.80;;;;;;;27.58;47.95;97296.22;5051339;28;20281;-75
2021/08/06 11:17:19;;;;;;;1.60;0.90;;;;;;;27.83;45.74;97298.09;5041625;28;20311;-76
2021/08/06 11:19:50;;;;;;;2.83;1.03;;;;;;;28.83;43.39;97302.56;5051450;28;20216;-76
2021/08/06 11:22:26;;;;;;;2.13;0.80;;;;;;;29.79;41.37;97295.53;5050836;28;20213;-76
2021/08/06 11:24:55;;;;;;;1.77;0.82;;;;;;;29.34;42.36;97289.19;5051567;28;20227;-76
2021/08/06 11:27:32;;;;;;;3.13;0.93;;;;;;;28.88;45.32;97278.44;5049699;28;20233;-75
2021/08/06 11:30:00;;;;;;;2.27;1.03;;;;;;;29.57;41.79;97284.13;5048601;28;20201;-75
2021/08/06 11:32:28;;;;;;;1.40;0.60;;;;;;;28.92;43.26;97282.13;5051130;28;20210;-72
2021/08/06 11:34:59;;;;;;;1.87;0.90;;;;;;;29.23;40.59;97281.72;5048387;28;20798;-73
2021/08/06 11:37:28;;;;;;;1.23;0.90;;;;;;;29.85;39.20;97294.16;5043386;28;20231;-72
2021/08/06 11:40:06;;;;;;;2.47;0.80;;;;;;;30.05;38.78;97286.97;5049497;28;20209;-72
2021/08/06 11:42:34;;;;;;;3.17;0.90;;;;;;;29.74;39.08;97287.50;5049653;28;20231;-73
2021/08/06 11:45:01;;;;;;;1.58;0.57;;;;;;;29.05;37.86;97296.75;5049634;28;20210;-73